Ana Sayfa
METAR-TAF:

METAR-TAF

Havaalanları :

Franceville, Gabon

Enlem: 01-39S, Boylam: 013-26E, yükseklik: 441 m

Güncel hava durumu gözlemi

Rapor saat 15:00 UTC de 1 saat ve 10 dakika önce yapıldı.
Rüzgar batı/güneybatıdan 3 kt, güney ve kuzey/kuzeybatı arasında değişken
Sıcaklık 32°C
Nem 63%
Basınç 1008 hPa
Görüş mesafesi 10 km veya daha fazla
2000 ft yükseklikte parçalı çok bulutlu

METAR: FOON 021500Z 24003KT 180V330 9999 BKN020 32/24 Q1008

Saat: 17:10 (16:10 UTC)


TAF: eksik

4.000'den fazla havaalanı için hava durumu gözlemleri ve tahminleri (METAR ve TAF raporları).

Kullanılabilir istasyonlar harita üzerinde sarı ve kırmızı noktalarla gösterilir.

İstasyonun adını görmek için fareyi noktanın üzerinde gezdirin.

Sonrasında hava gözlem ve tahminlerini görmek için tıklayın.

Haritayı değiştirmek için: yaklaştırmak için siyah artı işaretli yeşil düğmeye ve uzaklaştırmak için de eksi işaretli düğmeye hızla tıklayın; bitişik haritalar için yeşil okları kullanın.


METAR-TAF: